Time;durP1;ratioP1;P1;durP2;ratioP2;P2;SDS_P1;SDS_P2;PMS_P1;PMS_P2;Temp;Humidity;BMP_temperature;BMP_pressure;BME280_temperature;BME280_humidity;BME280_pressure;Samples;Min_cycle;Max_cycle;Signal;HPM_P1;HPM_P2
2020/03/16 00:02:05;;;;;;;2.37;2.17;;;;;;;19.39;38.61;100387.37;;;;-47
2020/03/16 00:05:04;;;;;;;2.28;2.08;;;;;;;19.38;38.67;100386.59;;;;-47
2020/03/16 00:08:04;;;;;;;2.66;2.27;;;;;;;19.37;38.61;100394.98;;;;-47
2020/03/16 00:11:04;;;;;;;2.23;2.02;;;;;;;19.36;38.71;100391.89;;;;-47
2020/03/16 00:14:05;;;;;;;2.45;2.23;;;;;;;19.34;38.69;100404.50;;;;-47
2020/03/16 00:17:04;;;;;;;2.48;2.28;;;;;;;19.33;38.66;100404.08;;;;-47
2020/03/16 00:20:04;;;;;;;3.01;2.17;;;;;;;19.32;38.67;100400.63;;;;-47
2020/03/16 00:23:04;;;;;;;2.55;2.35;;;;;;;19.31;38.71;100405.34;;;;-47
2020/03/16 00:26:04;;;;;;;2.27;2.07;;;;;;;19.30;38.74;100403.62;;;;-47
2020/03/16 00:29:05;;;;;;;2.20;2.00;;;;;;;19.28;38.71;100408.25;;;;-47
2020/03/16 00:32:05;;;;;;;2.21;2.01;;;;;;;19.28;38.75;100407.48;;;;-49
2020/03/16 00:35:04;;;;;;;2.20;2.00;;;;;;;19.26;38.74;100409.34;;;;-47
2020/03/16 00:38:04;;;;;;;2.28;2.08;;;;;;;19.26;38.72;100415.70;;;;-48
2020/03/16 00:41:05;;;;;;;2.42;2.13;;;;;;;19.25;38.76;100419.06;;;;-47
2020/03/16 00:44:23;;;;;;;2.37;2.17;;;;;;;19.24;38.75;100417.69;;;;-47
2020/03/16 00:47:05;;;;;;;2.41;2.17;;;;;;;19.22;38.75;100423.39;;;;-47
2020/03/16 00:50:04;;;;;;;2.34;2.14;;;;;;;19.22;38.81;100430.98;;;;-48
2020/03/16 00:53:04;;;;;;;2.20;2.00;;;;;;;19.21;38.78;100433.72;;;;-47
2020/03/16 00:56:04;;;;;;;2.29;2.09;;;;;;;19.20;38.79;100438.36;;;;-47
2020/03/16 00:59:04;;;;;;;2.33;2.11;;;;;;;19.19;38.78;100438.66;;;;-49
2020/03/16 01:02:05;;;;;;;2.30;2.08;;;;;;;19.19;38.79;100441.56;;;;-47
2020/03/16 01:05:04;;;;;;;2.28;2.05;;;;;;;19.18;38.76;100444.73;;;;-47
2020/03/16 01:08:04;;;;;;;2.19;1.99;;;;;;;19.16;38.80;100441.97;;;;-48
2020/03/16 01:11:04;;;;;;;2.41;2.12;;;;;;;19.16;38.84;100446.52;;;;-51
2020/03/16 01:14:04;;;;;;;2.26;2.06;;;;;;;19.15;38.79;100451.53;;;;-52
2020/03/16 01:17:05;;;;;;;2.31;2.11;;;;;;;19.14;38.82;100448.37;;;;-51
2020/03/16 01:20:05;;;;;;;2.39;2.03;;;;;;;19.13;38.80;100449.12;;;;-51
2020/03/16 01:23:04;;;;;;;2.30;2.10;;;;;;;19.13;38.79;100456.22;;;;-50
2020/03/16 01:26:05;;;;;;;2.54;2.09;;;;;;;19.11;38.79;100456.44;;;;-51
2020/03/16 01:29:04;;;;;;;2.43;2.06;;;;;;;19.10;38.80;100455.78;;;;-51
2020/03/16 01:32:04;;;;;;;2.23;2.03;;;;;;;19.09;38.82;100457.69;;;;-51
2020/03/16 01:35:04;;;;;;;2.11;1.91;;;;;;;19.08;38.86;100460.04;;;;-51
2020/03/16 01:38:04;;;;;;;2.61;2.09;;;;;;;19.07;38.81;100458.89;;;;-51
2020/03/16 01:41:05;;;;;;;2.88;2.13;;;;;;;19.06;38.83;100464.81;;;;-51
2020/03/16 01:44:04;;;;;;;2.29;2.07;;;;;;;19.06;38.83;100466.98;;;;-50
2020/03/16 01:47:04;;;;;;;2.31;2.11;;;;;;;19.05;38.81;100466.38;;;;-52
2020/03/16 01:50:04;;;;;;;2.31;2.11;;;;;;;19.04;38.82;100468.84;;;;-51
2020/03/16 01:53:04;;;;;;;2.79;2.10;;;;;;;19.04;38.82;100467.39;;;;-51
2020/03/16 01:56:04;;;;;;;2.30;2.11;;;;;;;19.02;38.83;100466.80;;;;-51
2020/03/16 01:59:04;;;;;;;2.21;2.01;;;;;;;19.02;38.81;100461.70;;;;-51
2020/03/16 02:02:05;;;;;;;2.14;1.94;;;;;;;19.00;38.83;100464.97;;;;-51
2020/03/16 02:05:05;;;;;;;2.87;1.97;;;;;;;19.00;38.88;100474.33;;;;-51
2020/03/16 02:08:04;;;;;;;2.04;1.84;;;;;;;18.99;38.86;100475.47;;;;-48
2020/03/16 02:11:04;;;;;;;2.16;1.96;;;;;;;18.99;38.87;100474.19;;;;-47
2020/03/16 02:14:04;;;;;;;2.08;1.88;;;;;;;18.98;38.81;100470.73;;;;-47
2020/03/16 02:17:05;;;;;;;2.31;2.09;;;;;;;18.97;38.84;100467.23;;;;-47
2020/03/16 02:20:05;;;;;;;2.27;2.07;;;;;;;18.96;38.87;100473.21;;;;-48
2020/03/16 02:23:05;;;;;;;2.11;1.91;;;;;;;18.96;38.88;100467.12;;;;-47
2020/03/16 02:26:04;;;;;;;2.15;1.95;;;;;;;18.95;38.86;100465.58;;;;-47
2020/03/16 02:29:04;;;;;;;2.17;1.97;;;;;;;18.95;38.87;100469.08;;;;-47
2020/03/16 02:33:26;;;;;;;2.12;1.92;;;;;;;18.94;38.86;100461.84;;;;-47
2020/03/16 02:35:05;;;;;;;2.06;1.87;;;;;;;18.93;38.88;100463.47;;;;-48
2020/03/16 02:38:04;;;;;;;2.27;2.07;;;;;;;18.92;38.88;100462.98;;;;-47
2020/03/16 02:41:04;;;;;;;2.81;2.17;;;;;;;18.91;38.89;100464.64;;;;-47
2020/03/16 02:44:04;;;;;;;2.07;1.87;;;;;;;18.91;38.88;100465.15;;;;-48
2020/03/16 02:47:04;;;;;;;2.57;2.04;;;;;;;18.90;38.90;100464.94;;;;-47
2020/03/16 02:50:04;;;;;;;2.27;2.07;;;;;;;18.89;38.88;100460.77;;;;-48
2020/03/16 02:53:04;;;;;;;1.99;1.85;;;;;;;18.89;38.88;100463.00;;;;-47
2020/03/16 02:56:05;;;;;;;2.37;2.01;;;;;;;18.88;38.89;100464.97;;;;-47
2020/03/16 02:59:05;;;;;;;2.11;1.91;;;;;;;18.88;38.93;100469.15;;;;-47
2020/03/16 03:02:04;;;;;;;2.11;1.91;;;;;;;18.87;38.88;100465.86;;;;-48
2020/03/16 03:05:04;;;;;;;2.24;2.04;;;;;;;18.86;38.87;100470.33;;;;-49
2020/03/16 03:08:04;;;;;;;2.29;2.09;;;;;;;18.86;38.93;100472.91;;;;-48
2020/03/16 03:11:04;;;;;;;2.09;1.90;;;;;;;18.85;38.86;100479.42;;;;-48
2020/03/16 03:14:04;;;;;;;2.26;2.01;;;;;;;18.84;38.92;100488.25;;;;-47
2020/03/16 03:17:05;;;;;;;2.25;1.93;;;;;;;18.83;38.89;100490.31;;;;-47
2020/03/16 03:20:04;;;;;;;2.27;2.07;;;;;;;18.83;38.92;100493.55;;;;-47
2020/03/16 03:23:04;;;;;;;2.31;2.09;;;;;;;18.82;38.90;100500.97;;;;-47
2020/03/16 03:26:04;;;;;;;2.19;1.99;;;;;;;18.82;38.92;100499.48;;;;-47
2020/03/16 03:29:04;;;;;;;2.09;1.80;;;;;;;18.80;38.91;100495.69;;;;-47
2020/03/16 03:32:04;;;;;;;2.41;2.21;;;;;;;18.80;38.91;100507.97;;;;-46
2020/03/16 03:35:05;;;;;;;1.95;1.82;;;;;;;18.79;38.93;100512.44;;;;-47
2020/03/16 03:38:05;;;;;;;2.16;1.96;;;;;;;18.79;38.93;100517.02;;;;-47
2020/03/16 03:41:04;;;;;;;2.09;1.89;;;;;;;18.79;38.92;100513.43;;;;-47
2020/03/16 03:44:04;;;;;;;1.93;1.83;;;;;;;18.77;38.90;100513.41;;;;-48
2020/03/16 03:47:04;;;;;;;2.11;1.91;;;;;;;18.76;38.92;100517.75;;;;-47
2020/03/16 03:50:04;;;;;;;2.24;2.04;;;;;;;18.75;38.90;100525.73;;;;-47
2020/03/16 03:53:04;;;;;;;2.16;1.96;;;;;;;18.76;38.89;100528.91;;;;-47
2020/03/16 03:56:04;;;;;;;2.01;1.85;;;;;;;18.75;38.90;100528.53;;;;-47
2020/03/16 03:59:04;;;;;;;2.08;1.89;;;;;;;18.75;38.89;100536.67;;;;-47
2020/03/16 04:02:41;;;;;;;2.21;2.01;;;;;;;18.74;38.91;100541.30;;;;-47
2020/03/16 04:05:05;;;;;;;2.21;1.89;;;;;;;18.73;38.92;100541.75;;;;-48
2020/03/16 04:08:04;;;;;;;2.17;1.93;;;;;;;18.72;38.96;100549.41;;;;-47
2020/03/16 04:11:04;;;;;;;2.17;1.97;;;;;;;18.71;38.96;100561.23;;;;-47
2020/03/16 04:14:04;;;;;;;2.22;2.02;;;;;;;18.71;38.96;100560.73;;;;-48
2020/03/16 04:17:04;;;;;;;2.01;1.85;;;;;;;18.71;38.94;100564.07;;;;-47
2020/03/16 04:20:04;;;;;;;2.10;1.90;;;;;;;18.70;38.95;100564.46;;;;-47
2020/03/16 04:23:04;;;;;;;2.10;1.87;;;;;;;18.69;38.94;100567.75;;;;-47
2020/03/16 04:26:04;;;;;;;2.13;1.93;;;;;;;18.70;38.93;100572.05;;;;-47
2020/03/16 04:29:04;;;;;;;2.33;1.78;;;;;;;18.69;38.93;100577.02;;;;-48
2020/03/16 04:32:04;;;;;;;2.10;1.90;;;;;;;18.67;38.95;100582.95;;;;-47
2020/03/16 04:35:04;;;;;;;2.23;2.01;;;;;;;18.67;38.94;100589.97;;;;-48
2020/03/16 04:38:04;;;;;;;2.12;1.94;;;;;;;18.67;38.93;100594.66;;;;-48
2020/03/16 04:41:04;;;;;;;2.01;1.87;;;;;;;18.66;38.91;100594.04;;;;-47
2020/03/16 04:44:04;;;;;;;2.09;1.89;;;;;;;18.66;38.92;100601.23;;;;-47
2020/03/16 04:47:04;;;;;;;2.25;2.05;;;;;;;18.67;38.95;100608.14;;;;-47
2020/03/16 04:50:04;;;;;;;2.05;1.88;;;;;;;18.67;38.93;100611.72;;;;-48
2020/03/16 04:53:04;;;;;;;2.27;2.07;;;;;;;18.69;38.94;100616.28;;;;-47
2020/03/16 04:56:04;;;;;;;2.23;2.02;;;;;;;18.71;38.94;100614.03;;;;-47
2020/03/16 04:59:04;;;;;;;2.12;1.92;;;;;;;18.73;38.99;100610.79;;;;-47
2020/03/16 05:02:04;;;;;;;2.04;1.84;;;;;;;18.76;38.94;100608.65;;;;-47
2020/03/16 05:05:04;;;;;;;2.10;1.90;;;;;;;18.80;38.97;100607.41;;;;-48
2020/03/16 05:08:04;;;;;;;2.43;1.99;;;;;;;18.84;38.92;100609.89;;;;-47
2020/03/16 05:11:04;;;;;;;2.10;1.83;;;;;;;18.88;38.92;100618.52;;;;-47
2020/03/16 05:14:05;;;;;;;1.93;1.81;;;;;;;18.92;39.00;100627.36;;;;-47
2020/03/16 05:17:04;;;;;;;2.09;1.89;;;;;;;18.96;39.01;100631.03;;;;-47
2020/03/16 05:20:04;;;;;;;2.09;1.89;;;;;;;18.98;38.95;100634.81;;;;-47
2020/03/16 05:23:04;;;;;;;1.89;1.79;;;;;;;19.02;39.02;100638.46;;;;-47
2020/03/16 05:26:04;;;;;;;2.09;1.89;;;;;;;19.07;39.11;100636.33;;;;-48
2020/03/16 05:29:04;;;;;;;2.19;1.96;;;;;;;19.11;39.04;100645.16;;;;-47
2020/03/16 05:32:05;;;;;;;2.33;1.97;;;;;;;19.14;39.06;100649.31;;;;-48
2020/03/16 05:35:04;;;;;;;1.97;1.80;;;;;;;19.17;39.09;100648.33;;;;-49
2020/03/16 05:38:04;;;;;;;1.89;1.79;;;;;;;19.19;39.05;100652.29;;;;-47
2020/03/16 05:41:04;;;;;;;2.13;1.93;;;;;;;19.23;39.09;100658.73;;;;-46
2020/03/16 05:44:04;;;;;;;2.22;2.02;;;;;;;19.25;39.14;100661.11;;;;-47
2020/03/16 05:47:04;;;;;;;1.99;1.89;;;;;;;19.29;39.14;100667.01;;;;-47
2020/03/16 05:50:05;;;;;;;2.15;1.95;;;;;;;19.30;39.06;100674.16;;;;-47
2020/03/16 05:53:04;;;;;;;1.99;1.85;;;;;;;19.33;39.06;100677.70;;;;-47
2020/03/16 05:56:04;;;;;;;2.11;1.91;;;;;;;19.34;39.06;100685.00;;;;-47
2020/03/16 05:59:04;;;;;;;2.17;1.97;;;;;;;19.37;39.02;100692.30;;;;-47
2020/03/16 06:02:04;;;;;;;2.00;1.86;;;;;;;19.38;39.01;100692.23;;;;-47
2020/03/16 06:05:05;;;;;;;2.10;1.90;;;;;;;19.40;38.97;100700.03;;;;-48
2020/03/16 06:08:04;;;;;;;1.89;1.74;;;;;;;19.41;39.03;100707.74;;;;-47
2020/03/16 06:11:05;;;;;;;1.90;1.79;;;;;;;19.43;38.92;100712.41;;;;-48
2020/03/16 06:14:04;;;;;;;1.85;1.75;;;;;;;19.44;38.89;100713.08;;;;-47
2020/03/16 06:17:04;;;;;;;3.00;1.96;;;;;;;19.45;38.85;100719.43;;;;-47
2020/03/16 06:20:04;;;;;;;2.04;1.92;;;;;;;19.45;38.88;100720.84;;;;-47
2020/03/16 06:23:04;;;;;;;2.00;1.80;;;;;;;19.46;38.84;100721.95;;;;-47
2020/03/16 06:26:04;;;;;;;2.23;2.01;;;;;;;19.46;38.81;100732.88;;;;-47
2020/03/16 06:29:04;;;;;;;2.09;1.89;;;;;;;19.47;38.80;100745.83;;;;-47
2020/03/16 06:32:04;;;;;;;2.01;1.87;;;;;;;19.47;38.81;100746.56;;;;-48
2020/03/16 06:35:04;;;;;;;2.05;1.90;;;;;;;19.47;38.73;100753.03;;;;-47
2020/03/16 06:38:04;;;;;;;2.33;1.98;;;;;;;19.47;38.80;100759.80;;;;-47
2020/03/16 06:41:04;;;;;;;2.03;1.87;;;;;;;19.47;38.80;100768.73;;;;-47
2020/03/16 06:44:04;;;;;;;1.96;1.80;;;;;;;19.47;38.72;100775.87;;;;-48
2020/03/16 06:47:04;;;;;;;2.01;1.91;;;;;;;19.47;38.69;100768.16;;;;-47
2020/03/16 06:50:04;;;;;;;2.10;1.90;;;;;;;19.47;38.75;100781.46;;;;-47
2020/03/16 06:53:04;;;;;;;1.96;1.72;;;;;;;19.46;38.69;100779.67;;;;-48
2020/03/16 06:56:04;;;;;;;1.91;1.80;;;;;;;19.46;38.70;100782.75;;;;-47
2020/03/16 06:59:04;;;;;;;2.20;2.00;;;;;;;19.46;38.69;100789.39;;;;-47
2020/03/16 07:02:04;;;;;;;2.17;1.90;;;;;;;19.46;38.69;100793.74;;;;-47
2020/03/16 07:05:04;;;;;;;2.13;1.93;;;;;;;19.46;38.65;100791.62;;;;-47
2020/03/16 07:08:05;;;;;;;2.15;1.95;;;;;;;19.45;38.67;100793.53;;;;-47
2020/03/16 07:11:05;;;;;;;2.01;1.83;;;;;;;19.46;38.67;100797.77;;;;-47
2020/03/16 07:14:04;;;;;;;2.13;1.88;;;;;;;19.45;38.61;100801.07;;;;-47
2020/03/16 07:17:04;;;;;;;2.07;1.89;;;;;;;19.45;38.59;100804.69;;;;-47
2020/03/16 07:20:04;;;;;;;1.80;1.70;;;;;;;19.45;38.62;100808.09;;;;-48
2020/03/16 07:23:04;;;;;;;2.10;1.90;;;;;;;19.45;38.60;100817.66;;;;-50
2020/03/16 07:26:08;;;;;;;2.89;1.81;;;;;;;19.45;38.57;100824.68;;;;-50
2020/03/16 07:29:05;;;;;;;2.18;1.89;;;;;;;19.45;38.57;100827.20;;;;-50
2020/03/16 07:32:04;;;;;;;2.07;1.87;;;;;;;19.45;38.62;100833.50;;;;-50
2020/03/16 07:35:05;;;;;;;1.77;1.67;;;;;;;19.46;38.59;100840.87;;;;-50
2020/03/16 07:38:04;;;;;;;2.09;1.89;;;;;;;19.46;38.60;100841.09;;;;-50
2020/03/16 07:41:04;;;;;;;2.08;1.88;;;;;;;19.46;38.62;100849.70;;;;-50
2020/03/16 07:44:04;;;;;;;2.11;1.91;;;;;;;19.46;38.57;100850.42;;;;-50
2020/03/16 07:47:05;;;;;;;1.97;1.79;;;;;;;19.47;38.57;100854.09;;;;-50
2020/03/16 07:50:04;;;;;;;2.63;1.77;;;;;;;19.47;38.59;100851.81;;;;-49
2020/03/16 07:53:04;;;;;;;2.17;1.93;;;;;;;19.46;38.53;100855.89;;;;-49
2020/03/16 07:56:04;;;;;;;2.26;2.03;;;;;;;19.48;38.52;100862.59;;;;-49
2020/03/16 07:59:04;;;;;;;2.16;1.96;;;;;;;19.47;38.54;100863.16;;;;-51
2020/03/16 08:02:04;;;;;;;2.03;1.83;;;;;;;19.47;38.53;100863.16;;;;-51
2020/03/16 08:05:04;;;;;;;2.07;1.87;;;;;;;19.49;38.56;100864.81;;;;-52
2020/03/16 08:08:04;;;;;;;2.01;1.85;;;;;;;19.49;38.49;100868.94;;;;-51
2020/03/16 08:11:04;;;;;;;2.06;1.73;;;;;;;19.49;38.50;100869.78;;;;-51
2020/03/16 08:14:04;;;;;;;1.93;1.72;;;;;;;19.51;38.53;100878.98;;;;-51
2020/03/16 08:17:04;;;;;;;2.08;1.80;;;;;;;19.50;38.52;100880.66;;;;-51
2020/03/16 08:20:04;;;;;;;1.93;1.72;;;;;;;19.51;38.52;100887.48;;;;-51
2020/03/16 08:23:04;;;;;;;1.90;1.70;;;;;;;19.51;38.52;100886.97;;;;-51
2020/03/16 08:26:04;;;;;;;2.06;1.86;;;;;;;19.52;38.49;100892.39;;;;-51
2020/03/16 08:29:04;;;;;;;2.15;1.95;;;;;;;19.53;38.55;100898.86;;;;-51
2020/03/16 08:32:04;;;;;;;1.93;1.80;;;;;;;19.53;38.53;100894.11;;;;-51
2020/03/16 08:35:04;;;;;;;1.89;1.79;;;;;;;19.54;38.53;100894.99;;;;-51
2020/03/16 08:38:04;;;;;;;1.90;1.80;;;;;;;19.53;38.52;100895.02;;;;-51
2020/03/16 08:41:04;;;;;;;2.66;1.95;;;;;;;19.54;38.54;100896.56;;;;-51
2020/03/16 08:44:04;;;;;;;2.05;1.85;;;;;;;19.54;38.40;100895.73;;;;-56
2020/03/16 08:47:05;;;;;;;4.51;2.25;;;;;;;19.49;38.33;100901.20;;;;-54
2020/03/16 08:50:04;;;;;;;3.49;2.69;;;;;;;19.44;38.12;100902.80;;;;-55
2020/03/16 08:53:04;;;;;;;4.56;2.93;;;;;;;19.40;37.97;100899.70;;;;-55
2020/03/16 08:56:04;;;;;;;10.63;3.09;;;;;;;19.37;37.92;100900.71;;;;-54
2020/03/16 08:59:04;;;;;;;3.42;2.99;;;;;;;19.38;38.37;100898.09;;;;-54
2020/03/16 09:02:04;;;;;;;4.96;3.08;;;;;;;19.40;38.69;100896.55;;;;-50
2020/03/16 09:05:04;;;;;;;4.06;2.83;;;;;;;19.44;38.86;100895.98;;;;-52
2020/03/16 09:08:04;;;;;;;5.06;2.48;;;;;;;19.49;39.27;100893.96;;;;-54
2020/03/16 09:11:05;;;;;;;4.78;2.61;;;;;;;19.50;39.22;100893.52;;;;-52
2020/03/16 09:14:04;;;;;;;3.44;2.57;;;;;;;19.52;39.26;100895.47;;;;-52
2020/03/16 09:17:04;;;;;;;4.51;2.55;;;;;;;19.53;38.96;100899.53;;;;-51
2020/03/16 09:20:04;;;;;;;2.83;2.35;;;;;;;19.53;38.87;100899.53;;;;-52
2020/03/16 09:23:04;;;;;;;4.31;2.41;;;;;;;19.52;38.75;100904.78;;;;-52
2020/03/16 09:26:04;;;;;;;4.37;2.30;;;;;;;19.52;38.72;100908.30;;;;-52
2020/03/16 09:29:04;;;;;;;2.95;2.24;;;;;;;19.51;38.67;100912.03;;;;-52
2020/03/16 09:32:04;;;;;;;3.00;2.40;;;;;;;19.51;38.66;100910.92;;;;-52
2020/03/16 09:35:04;;;;;;;3.48;2.41;;;;;;;19.50;38.60;100912.82;;;;-52
2020/03/16 09:38:04;;;;;;;2.75;2.21;;;;;;;19.49;38.55;100915.11;;;;-52
2020/03/16 09:41:04;;;;;;;6.69;2.23;;;;;;;19.49;38.88;100917.86;;;;-52
2020/03/16 09:44:04;;;;;;;5.83;2.49;;;;;;;19.53;39.56;100919.23;;;;-51
2020/03/16 09:47:05;;;;;;;5.01;2.35;;;;;;;19.53;39.14;100918.06;;;;-51
2020/03/16 09:50:04;;;;;;;4.36;2.53;;;;;;;19.54;38.89;100923.20;;;;-50
2020/03/16 09:53:04;;;;;;;4.68;2.24;;;;;;;19.56;38.82;100923.64;;;;-51
2020/03/16 09:56:05;;;;;;;4.92;2.17;;;;;;;19.57;38.96;100926.98;;;;-45
2020/03/16 09:59:04;;;;;;;8.17;3.67;;;;;;;19.58;38.83;100927.20;;;;-46
2020/03/16 10:02:04;;;;;;;6.61;4.13;;;;;;;19.60;38.77;100923.84;;;;-47
2020/03/16 10:05:04;;;;;;;8.71;3.71;;;;;;;19.63;38.92;100920.42;;;;-51
2020/03/16 10:08:04;;;;;;;8.09;3.29;;;;;;;19.67;38.92;100922.27;;;;-50
2020/03/16 10:11:04;;;;;;;5.07;2.99;;;;;;;19.69;38.77;100924.61;;;;-50
2020/03/16 10:14:04;;;;;;;5.45;2.72;;;;;;;19.71;38.75;100922.87;;;;-51
2020/03/16 10:17:04;;;;;;;6.25;3.12;;;;;;;19.72;38.65;100924.92;;;;-50
2020/03/16 10:20:04;;;;;;;8.01;2.99;;;;;;;19.73;38.73;100924.52;;;;-50
2020/03/16 10:23:04;;;;;;;4.86;2.87;;;;;;;19.75;38.71;100927.58;;;;-50
2020/03/16 10:26:04;;;;;;;5.35;2.92;;;;;;;19.80;38.97;100926.21;;;;-48
2020/03/16 10:29:05;;;;;;;8.38;2.93;;;;;;;19.81;38.64;100926.11;;;;-48
2020/03/16 10:32:05;;;;;;;9.21;3.12;;;;;;;19.83;38.63;100928.44;;;;-48
2020/03/16 10:35:05;;;;;;;4.47;2.89;;;;;;;19.85;38.63;100922.84;;;;-48
2020/03/16 10:38:04;;;;;;;4.26;2.87;;;;;;;19.86;38.47;100921.22;;;;-48
2020/03/16 10:41:04;;;;;;;4.93;2.85;;;;;;;19.88;38.55;100921.83;;;;-52
2020/03/16 10:44:04;;;;;;;4.49;2.87;;;;;;;19.88;38.54;100916.91;;;;-51
2020/03/16 10:47:04;;;;;;;4.53;2.62;;;;;;;19.89;38.46;100913.48;;;;-52
2020/03/16 10:50:04;;;;;;;5.17;2.75;;;;;;;19.91;38.59;100916.61;;;;-52
2020/03/16 10:53:04;;;;;;;4.38;2.92;;;;;;;19.92;38.47;100921.25;;;;-51
2020/03/16 10:56:04;;;;;;;6.71;3.02;;;;;;;19.93;38.60;100921.84;;;;-51
2020/03/16 10:59:04;;;;;;;4.71;2.65;;;;;;;19.93;38.51;100921.17;;;;-52
2020/03/16 11:02:04;;;;;;;4.65;3.03;;;;;;;19.94;38.55;100913.91;;;;-51
2020/03/16 11:05:04;;;;;;;4.00;2.64;;;;;;;19.95;38.54;100908.43;;;;-51
2020/03/16 11:08:04;;;;;;;3.71;2.71;;;;;;;19.95;38.49;100910.88;;;;-51
2020/03/16 11:11:04;;;;;;;4.88;2.81;;;;;;;19.96;38.44;100914.69;;;;-52
2020/03/16 11:14:04;;;;;;;3.82;2.53;;;;;;;19.99;38.61;100913.31;;;;-54
2020/03/16 11:17:04;;;;;;;4.84;2.60;;;;;;;19.99;38.54;100916.00;;;;-59
2020/03/16 11:20:04;;;;;;;3.29;2.49;;;;;;;19.99;38.58;100915.70;;;;-59
2020/03/16 11:23:04;;;;;;;5.18;2.42;;;;;;;19.99;38.49;100916.34;;;;-58
2020/03/16 11:26:04;;;;;;;5.35;2.51;;;;;;;19.99;38.45;100917.38;;;;-59
2020/03/16 11:29:04;;;;;;;3.78;2.62;;;;;;;19.99;38.42;100914.77;;;;-58
2020/03/16 11:32:04;;;;;;;4.75;2.40;;;;;;;20.00;38.35;100919.95;;;;-59
2020/03/16 11:35:04;;;;;;;3.41;2.43;;;;;;;20.01;38.44;100917.61;;;;-54
2020/03/16 11:38:04;;;;;;;4.71;2.59;;;;;;;20.00;38.41;100919.56;;;;-54
2020/03/16 11:41:04;;;;;;;5.32;2.73;;;;;;;20.00;38.39;100919.85;;;;-54
2020/03/16 11:44:04;;;;;;;3.55;2.43;;;;;;;20.01;38.38;100920.00;;;;-54
2020/03/16 11:47:04;;;;;;;3.85;2.55;;;;;;;20.01;38.33;100918.05;;;;-54
2020/03/16 11:50:04;;;;;;;3.69;2.55;;;;;;;20.01;38.32;100914.63;;;;-54
2020/03/16 11:53:04;;;;;;;4.57;2.55;;;;;;;20.01;38.29;100919.72;;;;-54
2020/03/16 11:56:04;;;;;;;3.08;2.42;;;;;;;20.02;38.28;100919.11;;;;-54
2020/03/16 11:59:04;;;;;;;3.39;2.31;;;;;;;20.02;38.27;100916.86;;;;-54
2020/03/16 12:02:04;;;;;;;3.85;2.54;;;;;;;20.02;38.37;100910.56;;;;-53
2020/03/16 12:05:04;;;;;;;3.25;2.43;;;;;;;20.02;38.27;100912.23;;;;-53
2020/03/16 12:08:04;;;;;;;3.97;2.57;;;;;;;20.03;38.32;100912.11;;;;-54
2020/03/16 12:11:04;;;;;;;2.79;2.20;;;;;;;20.03;38.27;100912.67;;;;-54
2020/03/16 12:14:04;;;;;;;4.06;2.24;;;;;;;20.03;38.34;100909.42;;;;-53
2020/03/16 12:17:04;;;;;;;3.43;2.17;;;;;;;20.03;38.31;100905.91;;;;-54
2020/03/16 12:20:04;;;;;;;2.87;2.24;;;;;;;20.04;38.31;100904.28;;;;-54
2020/03/16 12:23:04;;;;;;;5.11;2.34;;;;;;;20.05;38.26;100903.05;;;;-54
2020/03/16 12:26:04;;;;;;;3.62;2.53;;;;;;;20.05;38.28;100906.61;;;;-54
2020/03/16 12:29:04;;;;;;;3.97;2.67;;;;;;;20.05;38.32;100901.58;;;;-54
2020/03/16 12:32:04;;;;;;;3.83;2.23;;;;;;;20.06;38.24;100905.32;;;;-53
2020/03/16 12:35:04;;;;;;;2.55;2.22;;;;;;;20.07;38.23;100903.25;;;;-54
2020/03/16 12:38:04;;;;;;;3.01;2.26;;;;;;;20.08;38.45;100907.73;;;;-59
2020/03/16 12:41:04;;;;;;;3.28;2.25;;;;;;;20.09;38.91;100908.72;;;;-50
2020/03/16 12:44:04;;;;;;;11.85;2.56;;;;;;;20.10;38.87;100904.14;;;;-51
2020/03/16 12:47:04;;;;;;;4.26;2.27;;;;;;;20.12;38.76;100911.05;;;;-52
2020/03/16 12:50:05;;;;;;;4.88;2.34;;;;;;;20.13;38.59;100908.81;;;;-58
2020/03/16 12:53:04;;;;;;;3.29;2.35;;;;;;;20.13;38.34;100902.03;;;;-54
2020/03/16 12:56:04;;;;;;;4.45;2.35;;;;;;;20.16;38.57;100907.52;;;;-51
2020/03/16 12:59:04;;;;;;;3.19;2.19;;;;;;;20.16;38.49;100902.76;;;;-51
2020/03/16 13:02:04;;;;;;;3.40;2.23;;;;;;;20.16;38.47;100904.38;;;;-51
2020/03/16 13:05:07;;;;;;;3.78;2.22;;;;;;;20.16;38.53;100896.22;;;;-51
2020/03/16 13:08:04;;;;;;;5.13;2.39;;;;;;;20.17;38.47;100904.98;;;;-51
2020/03/16 13:11:04;;;;;;;3.36;2.17;;;;;;;20.16;38.48;100904.27;;;;-61
2020/03/16 13:14:04;;;;;;;3.62;2.24;;;;;;;20.18;38.48;100903.09;;;;-60
2020/03/16 13:17:04;;;;;;;7.20;2.24;;;;;;;20.18;38.58;100901.28;;;;-60
2020/03/16 13:20:04;;;;;;;5.07;2.25;;;;;;;20.20;39.01;100900.03;;;;-63
2020/03/16 13:23:04;;;;;;;3.98;2.08;;;;;;;20.22;39.08;100902.38;;;;-63
2020/03/16 13:26:04;;;;;;;3.15;2.14;;;;;;;20.22;38.94;100900.59;;;;-58
2020/03/16 13:29:04;;;;;;;3.29;2.16;;;;;;;20.24;39.06;100907.47;;;;-56
2020/03/16 13:32:04;;;;;;;4.25;2.24;;;;;;;20.24;39.61;100901.13;;;;-57
2020/03/16 13:35:04;;;;;;;4.90;2.16;;;;;;;20.27;39.71;100912.24;;;;-59
2020/03/16 13:38:04;;;;;;;2.51;2.00;;;;;;;20.27;39.56;100906.75;;;;-56
2020/03/16 13:41:04;;;;;;;2.64;1.91;;;;;;;20.28;39.46;100914.30;;;;-56
2020/03/16 13:44:04;;;;;;;2.53;1.89;;;;;;;20.29;39.28;100913.28;;;;-56
2020/03/16 13:47:04;;;;;;;2.68;1.97;;;;;;;20.29;39.32;100912.67;;;;-55
2020/03/16 13:50:04;;;;;;;3.17;2.15;;;;;;;20.32;39.52;100920.20;;;;-55
2020/03/16 13:53:04;;;;;;;2.14;1.75;;;;;;;20.32;39.32;100921.38;;;;-54
2020/03/16 13:56:04;;;;;;;4.21;2.24;;;;;;;20.33;39.25;100916.34;;;;-60
2020/03/16 13:59:04;;;;;;;2.79;2.00;;;;;;;20.34;39.23;100919.47;;;;-58
2020/03/16 14:02:04;;;;;;;2.56;1.91;;;;;;;20.36;39.35;100915.36;;;;-56
2020/03/16 14:05:04;;;;;;;3.00;1.99;;;;;;;20.38;39.50;100923.19;;;;-57
2020/03/16 14:08:04;;;;;;;3.11;2.03;;;;;;;20.38;39.28;100927.15;;;;-57
2020/03/16 14:11:04;;;;;;;2.50;1.89;;;;;;;20.40;39.20;100927.88;;;;-63
2020/03/16 14:14:04;;;;;;;3.95;1.82;;;;;;;20.42;39.66;100930.41;;;;-53
2020/03/16 14:17:04;;;;;;;2.23;1.81;;;;;;;20.45;39.50;100927.37;;;;-52
2020/03/16 14:20:04;;;;;;;3.61;1.72;;;;;;;20.46;39.20;100938.06;;;;-52
2020/03/16 14:23:04;;;;;;;2.97;1.92;;;;;;;20.45;39.11;100930.34;;;;-52
2020/03/16 14:26:04;;;;;;;2.35;1.83;;;;;;;20.47;39.00;100931.94;;;;-52
2020/03/16 14:29:04;;;;;;;2.33;1.76;;;;;;;20.46;38.89;100934.98;;;;-52
2020/03/16 14:32:04;;;;;;;2.03;1.80;;;;;;;20.46;38.80;100938.61;;;;-52
2020/03/16 14:35:04;;;;;;;3.48;2.01;;;;;;;20.48;38.77;100939.83;;;;-52
2020/03/16 14:38:04;;;;;;;2.28;1.85;;;;;;;20.48;38.79;100937.38;;;;-52
2020/03/16 14:41:04;;;;;;;2.50;1.90;;;;;;;20.48;38.71;100933.39;;;;-51
2020/03/16 14:44:04;;;;;;;2.44;1.80;;;;;;;20.47;38.72;100935.47;;;;-52
2020/03/16 14:47:04;;;;;;;2.45;1.55;;;;;;;20.47;38.57;100942.14;;;;-52
2020/03/16 14:50:04;;;;;;;2.02;1.75;;;;;;;20.48;38.61;100945.30;;;;-52
2020/03/16 14:53:04;;;;;;;1.97;1.73;;;;;;;20.47;38.50;100943.48;;;;-52
2020/03/16 14:56:04;;;;;;;2.69;1.79;;;;;;;20.48;38.52;100951.85;;;;-52
2020/03/16 14:59:04;;;;;;;2.39;1.80;;;;;;;20.47;38.56;100951.29;;;;-52
2020/03/16 15:02:04;;;;;;;2.98;1.91;;;;;;;20.49;38.50;100954.48;;;;-52
2020/03/16 15:05:04;;;;;;;2.05;1.81;;;;;;;20.47;38.50;100958.11;;;;-52
2020/03/16 15:08:04;;;;;;;3.17;1.91;;;;;;;20.49;38.56;100959.28;;;;-61
2020/03/16 15:11:04;;;;;;;5.35;2.00;;;;;;;20.49;39.02;100956.83;;;;-61
2020/03/16 15:14:04;;;;;;;2.36;1.81;;;;;;;20.51;39.23;100968.73;;;;-62
2020/03/16 15:17:04;;;;;;;2.01;1.69;;;;;;;20.51;39.22;100968.23;;;;-61
2020/03/16 15:20:04;;;;;;;3.00;1.81;;;;;;;20.52;39.28;100969.33;;;;-63
2020/03/16 15:23:04;;;;;;;2.81;1.89;;;;;;;20.54;39.40;100969.37;;;;-63
2020/03/16 15:26:04;;;;;;;3.91;1.71;;;;;;;20.54;39.32;100970.33;;;;-57
2020/03/16 15:29:04;;;;;;;3.00;1.67;;;;;;;20.57;39.35;100970.64;;;;-57
2020/03/16 15:32:04;;;;;;;3.41;1.72;;;;;;;20.57;39.28;100970.70;;;;-63
2020/03/16 15:35:04;;;;;;;2.67;1.81;;;;;;;20.58;39.41;100971.52;;;;-64
2020/03/16 15:38:04;;;;;;;3.15;1.91;;;;;;;20.59;39.36;100973.48;;;;-63
2020/03/16 15:41:04;;;;;;;3.75;1.80;;;;;;;20.59;39.36;100973.08;;;;-62
2020/03/16 15:44:04;;;;;;;4.35;1.74;;;;;;;20.60;39.39;100977.09;;;;-63
2020/03/16 15:47:04;;;;;;;2.07;1.77;;;;;;;20.61;39.71;100980.23;;;;-58
2020/03/16 15:50:04;;;;;;;6.84;1.80;;;;;;;20.63;39.46;100984.92;;;;-57
2020/03/16 15:53:04;;;;;;;2.41;1.75;;;;;;;20.64;39.66;100982.72;;;;-55
2020/03/16 15:56:04;;;;;;;2.79;1.80;;;;;;;20.68;39.72;100987.95;;;;-63
2020/03/16 15:59:04;;;;;;;4.45;1.77;;;;;;;20.66;39.24;100988.87;;;;-63
2020/03/16 16:02:04;;;;;;;1.98;1.72;;;;;;;20.66;39.18;100991.11;;;;-54
2020/03/16 16:05:04;;;;;;;2.85;1.70;;;;;;;20.67;39.43;100992.83;;;;-53
2020/03/16 16:08:04;;;;;;;2.48;1.84;;;;;;;20.67;39.43;100995.02;;;;-60
2020/03/16 16:11:04;;;;;;;2.40;1.70;;;;;;;20.67;39.40;100998.38;;;;-62
2020/03/16 16:14:04;;;;;;;3.29;1.73;;;;;;;20.67;39.59;100997.70;;;;-57
2020/03/16 16:17:04;;;;;;;1.95;1.71;;;;;;;20.68;39.61;100999.37;;;;-60
2020/03/16 16:20:04;;;;;;;2.57;1.67;;;;;;;20.69;39.60;101004.78;;;;-61
2020/03/16 16:23:04;;;;;;;2.03;1.70;;;;;;;20.68;39.53;101005.08;;;;-59
2020/03/16 16:26:04;;;;;;;3.38;1.60;;;;;;;20.70;39.59;101008.76;;;;-58
2020/03/16 16:29:04;;;;;;;2.32;1.72;;;;;;;20.71;39.52;101007.90;;;;-61
2020/03/16 16:32:04;;;;;;;2.48;1.81;;;;;;;20.72;39.48;101006.84;;;;-61
2020/03/16 16:35:04;;;;;;;2.54;1.73;;;;;;;20.76;39.67;101006.09;;;;-58
2020/03/16 16:38:04;;;;;;;4.65;1.69;;;;;;;20.73;39.20;101004.77;;;;-58
2020/03/16 16:41:04;;;;;;;2.96;1.75;;;;;;;20.73;38.96;101009.23;;;;-58
2020/03/16 16:44:04;;;;;;;3.75;1.75;;;;;;;20.71;38.90;101008.08;;;;-59